createdAt,value
2023-07-21T00:01:51.787Z,18.59
2023-07-21T00:04:56.072Z,18.56
2023-07-21T00:07:58.736Z,18.48
2023-07-21T00:11:01.562Z,18.48
2023-07-21T00:14:04.250Z,18.42
2023-07-21T00:17:07.432Z,18.42
2023-07-21T00:20:12.602Z,18.37
2023-07-21T00:23:16.117Z,18.34
2023-07-21T00:26:19.308Z,18.16
2023-07-21T00:29:22.080Z,18.14
2023-07-21T00:32:24.835Z,18.15
2023-07-21T00:35:27.864Z,18.03
2023-07-21T00:38:31.151Z,17.99
2023-07-21T00:41:34.880Z,17.91
2023-07-21T00:44:38.373Z,17.85
2023-07-21T00:47:42.497Z,17.87
2023-07-21T00:50:51.193Z,17.52
2023-07-21T00:53:54.531Z,17.66
2023-07-21T00:56:58.620Z,17.79
2023-07-21T01:00:09.183Z,17.82
2023-07-21T01:03:13.572Z,17.78
2023-07-21T01:06:18.156Z,17.68
2023-07-21T01:09:23.395Z,17.69
2023-07-21T01:12:27.553Z,17.81
2023-07-21T01:15:32.288Z,17.74
2023-07-21T01:18:56.313Z,17.88
2023-07-21T01:22:04.962Z,17.85
2023-07-21T01:25:08.723Z,17.76
2023-07-21T01:28:13.461Z,17.80
2023-07-21T01:31:18.725Z,17.64
2023-07-21T01:34:23.465Z,17.64
2023-07-21T01:37:26.838Z,17.61
2023-07-21T01:40:31.870Z,17.48
2023-07-21T01:43:35.916Z,17.42
2023-07-21T01:46:38.810Z,17.39
2023-07-21T01:49:41.811Z,17.39
2023-07-21T01:52:46.778Z,17.50
2023-07-21T01:56:01.617Z,17.46
2023-07-21T01:59:08.543Z,17.42
2023-07-21T02:02:12.224Z,17.45
2023-07-21T02:05:27.423Z,17.42
2023-07-21T02:08:31.312Z,17.39
2023-07-21T02:11:34.868Z,17.39
2023-07-21T02:14:52.082Z,17.31
2023-07-21T02:17:55.401Z,17.28
2023-07-21T02:21:03.920Z,17.26
2023-07-21T02:24:07.250Z,17.17
2023-07-21T02:27:11.150Z,17.00
2023-07-21T02:30:17.965Z,16.95
2023-07-21T02:33:22.140Z,16.97
2023-07-21T02:36:25.621Z,16.97
2023-07-21T02:39:28.847Z,16.88
2023-07-21T02:42:32.233Z,16.93
2023-07-21T02:45:35.423Z,16.92
2023-07-21T02:48:38.883Z,16.90
2023-07-21T02:51:42.166Z,16.88
2023-07-21T02:54:45.607Z,16.84
2023-07-21T02:57:48.626Z,16.88
2023-07-21T03:00:58.045Z,16.88
2023-07-21T03:04:09.189Z,16.93
2023-07-21T03:07:24.072Z,16.94
2023-07-21T03:10:36.088Z,16.90
2023-07-21T03:13:39.516Z,16.98
2023-07-21T03:16:44.448Z,16.85
2023-07-21T03:19:49.291Z,16.83
2023-07-21T03:22:53.209Z,16.94
2023-07-21T03:25:56.133Z,16.94
2023-07-21T03:28:59.983Z,17.00
2023-07-21T03:32:05.758Z,17.05
2023-07-21T03:35:12.347Z,16.95
2023-07-21T03:38:15.803Z,16.96
2023-07-21T03:41:18.858Z,16.95
2023-07-21T03:44:21.591Z,17.02
2023-07-21T03:47:24.875Z,17.02
2023-07-21T03:50:33.220Z,16.97
2023-07-21T03:53:37.706Z,17.12
2023-07-21T03:56:44.037Z,16.90
2023-07-21T03:59:51.885Z,16.95
2023-07-21T04:02:55.748Z,17.00
2023-07-21T04:06:05.161Z,17.10
2023-07-21T04:09:07.829Z,17.14
2023-07-21T04:12:11.546Z,17.11
2023-07-21T04:15:16.349Z,17.11
2023-07-21T04:18:20.200Z,17.21
2023-07-21T04:21:23.704Z,17.33
2023-07-21T04:24:27.167Z,17.23
2023-07-21T04:27:32.976Z,17.24
2023-07-21T04:30:35.663Z,17.30
2023-07-21T04:33:39.225Z,17.45
2023-07-21T04:36:42.138Z,17.36
2023-07-21T04:40:00.035Z,17.52
2023-07-21T04:43:02.737Z,17.54
2023-07-21T04:46:05.398Z,17.74
2023-07-21T04:49:14.902Z,17.66
2023-07-21T04:52:22.894Z,17.77
2023-07-21T04:55:28.204Z,17.86
2023-07-21T04:58:32.049Z,18.13
2023-07-21T05:01:35.515Z,18.08
2023-07-21T05:04:38.572Z,18.27
2023-07-21T05:07:44.417Z,18.38
2023-07-21T05:10:48.037Z,18.58
2023-07-21T05:13:54.129Z,18.31
2023-07-21T05:17:07.638Z,18.27
2023-07-21T05:20:48.941Z,18.29
2023-07-21T05:24:01.668Z,18.56
2023-07-21T05:27:04.701Z,18.53
2023-07-21T05:30:23.206Z,18.68
2023-07-21T05:33:29.927Z,18.72
2023-07-21T05:36:35.867Z,18.78
2023-07-21T05:39:38.508Z,19.12
2023-07-21T05:42:41.122Z,19.40
2023-07-21T05:45:43.960Z,19.67
2023-07-21T05:48:46.649Z,19.39
2023-07-21T05:51:50.400Z,19.42
2023-07-21T05:55:02.506Z,19.55
2023-07-21T05:58:09.108Z,19.68
2023-07-21T06:01:15.442Z,20.08
2023-07-21T06:04:19.189Z,20.48
2023-07-21T06:07:29.392Z,20.71
2023-07-21T06:10:47.077Z,20.91
2023-07-21T06:14:03.260Z,21.14
2023-07-21T06:17:30.190Z,21.44
2023-07-21T06:20:34.710Z,21.58
2023-07-21T06:23:38.071Z,21.85
2023-07-21T06:26:41.119Z,21.91
2023-07-21T06:29:46.881Z,21.85
2023-07-21T06:32:55.697Z,22.14
2023-07-21T06:36:20.941Z,22.11
2023-07-21T06:39:49.389Z,22.20
2023-07-21T06:43:15.628Z,22.64
2023-07-21T06:46:29.606Z,22.80
2023-07-21T06:49:45.178Z,22.97
2023-07-21T06:52:56.711Z,22.83
2023-07-21T06:55:59.798Z,22.63
2023-07-21T06:59:03.033Z,22.50
2023-07-21T07:02:06.412Z,22.38
2023-07-21T07:05:09.758Z,22.61
2023-07-21T07:08:13.796Z,23.01
2023-07-21T07:11:17.453Z,22.81
2023-07-21T07:14:20.586Z,22.73
2023-07-21T07:17:23.201Z,23.03
2023-07-21T07:20:26.582Z,23.39
2023-07-21T07:23:29.390Z,23.37
2023-07-21T07:26:33.264Z,23.63
2023-07-21T07:29:36.643Z,23.54
2023-07-21T07:32:39.680Z,23.51
2023-07-21T07:35:54.423Z,23.78
2023-07-21T07:38:57.733Z,24.35
2023-07-21T07:42:01.687Z,24.01
2023-07-21T07:45:04.879Z,23.92
2023-07-21T07:48:10.476Z,23.86
2023-07-21T07:51:13.118Z,23.35
2023-07-21T07:54:16.841Z,23.36
2023-07-21T07:57:21.496Z,23.39
2023-07-21T08:00:27.190Z,23.57
2023-07-21T08:03:30.904Z,23.63
2023-07-21T08:06:33.727Z,23.63
2023-07-21T08:09:37.957Z,23.82
2023-07-21T08:12:40.390Z,23.92
2023-07-21T08:15:44.984Z,23.99
2023-07-21T08:18:47.655Z,24.13
2023-07-21T08:21:51.206Z,25.45
2023-07-21T08:24:57.028Z,25.86
2023-07-21T08:28:04.700Z,27.06
2023-07-21T08:31:07.453Z,27.05
2023-07-21T08:34:11.466Z,28.34
2023-07-21T08:37:13.970Z,27.85
2023-07-21T08:40:17.584Z,27.67
2023-07-21T08:43:21.163Z,27.79
2023-07-21T08:46:25.700Z,27.26
2023-07-21T08:49:31.441Z,26.75
2023-07-21T08:52:34.271Z,26.83
2023-07-21T08:55:37.146Z,26.85
2023-07-21T08:58:39.834Z,27.16
2023-07-21T09:01:44.948Z,27.31
2023-07-21T09:04:48.669Z,27.24
2023-07-21T09:07:51.297Z,26.98
2023-07-21T09:10:59.062Z,27.19
2023-07-21T09:14:01.935Z,27.45
2023-07-21T09:17:13.013Z,27.28
2023-07-21T09:20:15.902Z,26.77
2023-07-21T09:23:24.987Z,26.90
2023-07-21T09:26:27.900Z,26.73
2023-07-21T09:29:31.439Z,26.68
2023-07-21T09:32:41.609Z,27.19
2023-07-21T09:35:44.346Z,27.87
2023-07-21T09:38:47.193Z,28.22
2023-07-21T09:41:52.598Z,28.04
2023-07-21T09:44:56.987Z,29.09
2023-07-21T09:48:00.611Z,28.66
2023-07-21T09:51:09.009Z,29.43
2023-07-21T09:54:18.050Z,28.99
2023-07-21T09:57:23.604Z,29.17
2023-07-21T10:00:30.031Z,28.89
2023-07-21T10:03:34.803Z,28.11
2023-07-21T10:06:38.437Z,27.70
2023-07-21T10:09:41.806Z,27.48
2023-07-21T10:12:56.227Z,27.59
2023-07-21T10:16:22.697Z,27.57
2023-07-21T10:19:28.867Z,27.40
2023-07-21T10:22:32.099Z,27.72
2023-07-21T10:25:49.950Z,27.96
2023-07-21T10:28:55.768Z,29.10
2023-07-21T10:32:01.037Z,30.05
2023-07-21T10:35:04.000Z,30.70
2023-07-21T10:38:16.933Z,29.72
2023-07-21T10:41:20.626Z,29.57
2023-07-21T10:44:32.377Z,29.31
2023-07-21T10:47:35.851Z,28.36
2023-07-21T10:50:42.919Z,27.78
2023-07-21T10:53:46.074Z,27.84
2023-07-21T10:56:50.888Z,27.88
2023-07-21T10:59:55.408Z,27.80
2023-07-21T11:02:58.658Z,28.02
2023-07-21T11:06:02.702Z,28.05
2023-07-21T11:09:06.737Z,28.30
2023-07-21T11:12:12.057Z,27.52
2023-07-21T11:15:19.625Z,27.36
2023-07-21T11:18:23.342Z,27.59
2023-07-21T11:21:26.177Z,28.12
2023-07-21T11:24:30.858Z,28.14
2023-07-21T11:27:34.484Z,28.10
2023-07-21T11:30:37.094Z,28.67
2023-07-21T11:33:50.486Z,28.90
2023-07-21T11:36:59.445Z,29.14
2023-07-21T11:40:16.583Z,28.18
2023-07-21T11:43:19.055Z,28.34
2023-07-21T11:46:27.544Z,29.27
2023-07-21T11:49:33.766Z,30.17
2023-07-21T11:52:37.734Z,30.73
2023-07-21T11:55:40.284Z,30.68
2023-07-21T11:58:45.481Z,30.85
2023-07-21T12:01:49.579Z,30.71
2023-07-21T12:04:54.016Z,31.77
2023-07-21T12:07:56.575Z,32.10
2023-07-21T12:11:00.893Z,31.79
2023-07-21T12:14:04.516Z,31.61
2023-07-21T12:17:07.604Z,31.03
2023-07-21T12:20:14.681Z,31.37
2023-07-21T12:23:17.792Z,30.45
2023-07-21T12:26:20.796Z,29.27
2023-07-21T12:29:42.502Z,29.32
2023-07-21T12:32:46.078Z,29.47
2023-07-21T12:35:48.967Z,28.41
2023-07-21T12:38:52.440Z,28.37
2023-07-21T12:41:57.600Z,28.04
2023-07-21T12:45:00.251Z,27.60
2023-07-21T12:48:03.351Z,27.56
2023-07-21T12:51:05.955Z,27.54
2023-07-21T12:54:08.937Z,27.49
2023-07-21T12:57:11.824Z,27.50
2023-07-21T13:00:14.944Z,27.22
2023-07-21T13:03:17.681Z,27.13
2023-07-21T13:06:20.434Z,26.98
2023-07-21T13:09:25.306Z,27.11
2023-07-21T13:12:28.325Z,26.98
2023-07-21T13:15:34.187Z,27.25
2023-07-21T13:18:38.134Z,27.48
2023-07-21T13:21:40.999Z,27.40
2023-07-21T13:24:45.756Z,27.02
2023-07-21T13:27:51.020Z,26.87
2023-07-21T13:30:54.563Z,26.83
2023-07-21T13:33:57.561Z,26.49
2023-07-21T13:37:00.563Z,26.30
2023-07-21T13:40:05.666Z,26.34
2023-07-21T13:43:09.455Z,26.33
2023-07-21T13:46:12.075Z,26.12
2023-07-21T13:49:14.989Z,25.89
2023-07-21T13:52:17.598Z,25.79
2023-07-21T13:55:20.980Z,25.94
2023-07-21T13:58:27.337Z,25.73
2023-07-21T14:01:30.087Z,25.44
2023-07-21T14:04:34.791Z,25.03
2023-07-21T14:07:37.483Z,24.73
2023-07-21T14:10:40.162Z,24.43
2023-07-21T14:13:43.481Z,24.34
2023-07-21T14:16:46.431Z,24.46
2023-07-21T14:19:49.591Z,24.41
2023-07-21T14:22:52.156Z,24.45
2023-07-21T14:25:55.736Z,24.45
2023-07-21T14:28:58.379Z,24.39
2023-07-21T14:32:01.056Z,24.06
2023-07-21T14:35:08.325Z,23.66
2023-07-21T14:38:13.145Z,23.40
2023-07-21T14:41:16.564Z,23.04
2023-07-21T14:44:21.214Z,23.20
2023-07-21T14:47:23.755Z,22.98
2023-07-21T14:50:26.610Z,23.05
2023-07-21T14:53:29.639Z,23.07
2023-07-21T14:56:32.648Z,23.01
2023-07-21T14:59:35.370Z,22.61
2023-07-21T15:02:38.337Z,22.71
2023-07-21T15:05:41.136Z,22.91
2023-07-21T15:08:44.427Z,22.85
2023-07-21T15:11:47.759Z,22.79
2023-07-21T15:14:51.471Z,22.80
2023-07-21T15:17:55.398Z,22.89
2023-07-21T15:20:59.631Z,23.11
2023-07-21T15:24:02.172Z,23.14
2023-07-21T15:27:08.117Z,23.07
2023-07-21T15:30:11.229Z,23.12
2023-07-21T15:33:14.209Z,23.07
2023-07-21T15:36:18.148Z,22.98
2023-07-21T15:39:21.297Z,22.84
2023-07-21T15:42:23.876Z,22.84
2023-07-21T15:45:27.197Z,22.85
2023-07-21T15:48:31.509Z,23.02
2023-07-21T15:51:34.140Z,23.03
2023-07-21T15:54:36.609Z,23.01
2023-07-21T15:57:39.972Z,23.14
2023-07-21T16:01:05.723Z,23.40
2023-07-21T16:04:10.182Z,23.46
2023-07-21T16:07:13.426Z,23.54
2023-07-21T16:10:16.419Z,23.45
2023-07-21T16:13:19.243Z,23.36
2023-07-21T16:16:26.199Z,23.51
2023-07-21T16:19:29.181Z,23.60
2023-07-21T16:22:31.954Z,23.51
2023-07-21T16:25:34.438Z,23.43
2023-07-21T16:28:37.796Z,23.41
2023-07-21T16:31:43.978Z,23.32
2023-07-21T16:34:50.899Z,23.22
2023-07-21T16:37:56.657Z,23.05
2023-07-21T16:41:03.658Z,22.95
2023-07-21T16:44:06.945Z,22.96
2023-07-21T16:47:09.763Z,22.90
2023-07-21T16:50:13.234Z,22.78
2023-07-21T16:53:16.395Z,22.77
2023-07-21T16:56:19.244Z,22.74
2023-07-21T16:59:24.082Z,22.73
2023-07-21T17:02:27.725Z,22.73
2023-07-21T17:05:33.329Z,22.57
2023-07-21T17:08:38.051Z,22.36
2023-07-21T17:11:46.962Z,22.49
2023-07-21T17:14:49.740Z,22.37
2023-07-21T17:17:55.373Z,22.41
2023-07-21T17:20:58.182Z,22.40
2023-07-21T17:24:01.412Z,22.46
2023-07-21T17:27:06.765Z,22.27
2023-07-21T17:30:10.122Z,22.22
2023-07-21T17:33:16.057Z,22.19
2023-07-21T17:36:19.313Z,22.23
2023-07-21T17:39:22.179Z,21.98
2023-07-21T17:42:26.478Z,21.97
2023-07-21T17:45:29.374Z,21.76
2023-07-21T17:48:32.442Z,21.82
2023-07-21T17:51:38.041Z,21.46
2023-07-21T17:54:41.059Z,21.31
2023-07-21T17:57:44.102Z,20.99
2023-07-21T18:00:46.889Z,20.96
2023-07-21T18:03:54.270Z,20.87
2023-07-21T18:06:57.793Z,20.94
2023-07-21T18:10:00.858Z,20.93
2023-07-21T18:13:04.629Z,21.08
2023-07-21T18:16:14.306Z,21.18
2023-07-21T18:19:18.523Z,21.13
2023-07-21T18:22:21.495Z,21.18
2023-07-21T18:25:24.181Z,21.21
2023-07-21T18:28:26.985Z,21.07
2023-07-21T18:31:36.122Z,21.15
2023-07-21T18:34:39.249Z,21.07
2023-07-21T18:37:41.928Z,20.94
2023-07-21T18:40:44.775Z,20.80
2023-07-21T18:43:51.606Z,20.76
2023-07-21T18:46:54.854Z,20.87
2023-07-21T18:50:02.471Z,20.76
2023-07-21T18:53:07.317Z,20.84
2023-07-21T18:56:10.649Z,20.76
2023-07-21T18:59:13.302Z,20.78
2023-07-21T19:02:16.687Z,20.82
2023-07-21T19:05:19.581Z,20.65
2023-07-21T19:08:25.159Z,20.74
2023-07-21T19:11:28.014Z,20.57
2023-07-21T19:14:31.246Z,20.39
2023-07-21T19:17:33.810Z,20.57
2023-07-21T19:20:41.003Z,20.55
2023-07-21T19:23:44.178Z,20.43
2023-07-21T19:26:49.907Z,20.14
2023-07-21T19:29:52.371Z,19.89
2023-07-21T19:32:55.641Z,19.81
2023-07-21T19:35:58.537Z,19.99
2023-07-21T19:39:01.068Z,19.85
2023-07-21T19:42:11.088Z,19.85
2023-07-21T19:45:13.940Z,19.75
2023-07-21T19:48:16.615Z,19.82
2023-07-21T19:51:20.140Z,19.50
2023-07-21T19:54:22.733Z,19.40
2023-07-21T19:57:42.084Z,18.82
2023-07-21T20:00:46.121Z,18.97
2023-07-21T20:03:50.378Z,19.01
2023-07-21T20:06:53.206Z,19.11
2023-07-21T20:09:55.771Z,19.12
2023-07-21T20:12:59.271Z,18.95
2023-07-21T20:16:02.355Z,19.32
2023-07-21T20:19:05.646Z,19.33
2023-07-21T20:22:09.078Z,19.38
2023-07-21T20:25:12.952Z,19.17
2023-07-21T20:28:17.818Z,18.89
2023-07-21T20:31:20.558Z,19.16
2023-07-21T20:34:23.790Z,19.12
2023-07-21T20:37:26.558Z,19.19
2023-07-21T20:40:29.159Z,19.25
2023-07-21T20:43:31.827Z,19.30
2023-07-21T20:46:34.896Z,18.92
2023-07-21T20:49:37.956Z,19.07
2023-07-21T20:52:40.958Z,19.25
2023-07-21T20:55:43.408Z,19.29
2023-07-21T20:58:46.447Z,19.34
2023-07-21T21:01:48.960Z,19.35
2023-07-21T21:04:51.896Z,19.35
2023-07-21T21:07:54.705Z,19.32
2023-07-21T21:10:57.936Z,19.22
2023-07-21T21:14:01.264Z,19.27
2023-07-21T21:17:04.143Z,19.28
2023-07-21T21:20:07.512Z,19.31
2023-07-21T21:23:11.763Z,19.17
2023-07-21T21:26:17.688Z,19.17
2023-07-21T21:29:21.193Z,19.24
2023-07-21T21:32:23.743Z,19.21
2023-07-21T21:35:29.108Z,19.20
2023-07-21T21:38:31.981Z,19.24
2023-07-21T21:41:34.660Z,19.30
2023-07-21T21:44:37.383Z,19.23
2023-07-21T21:47:40.144Z,19.17
2023-07-21T21:50:42.987Z,19.21
2023-07-21T21:53:45.633Z,19.26
2023-07-21T21:56:48.068Z,19.26
2023-07-21T21:59:52.737Z,19.32
2023-07-21T22:02:55.434Z,19.05
2023-07-21T22:05:59.172Z,18.91
2023-07-21T22:09:05.297Z,18.95
2023-07-21T22:12:10.179Z,18.90
2023-07-21T22:15:12.870Z,18.82
2023-07-21T22:18:16.092Z,18.89
2023-07-21T22:21:18.805Z,18.69
2023-07-21T22:24:22.317Z,18.80
2023-07-21T22:27:25.043Z,18.73
2023-07-21T22:30:35.112Z,18.70
2023-07-21T22:33:44.043Z,18.79
2023-07-21T22:36:47.329Z,18.73
2023-07-21T22:39:49.891Z,18.80
2023-07-21T22:42:52.758Z,18.88
2023-07-21T22:45:55.615Z,18.93
2023-07-21T22:49:00.601Z,18.93
2023-07-21T22:52:04.347Z,19.01
2023-07-21T22:55:09.158Z,19.02
2023-07-21T22:58:13.315Z,19.15
2023-07-21T23:01:15.927Z,19.15
2023-07-21T23:04:18.727Z,19.19
2023-07-21T23:07:21.374Z,19.14
2023-07-21T23:10:24.194Z,18.95
2023-07-21T23:13:27.011Z,19.05
2023-07-21T23:16:34.451Z,19.03
2023-07-21T23:19:40.936Z,18.97
2023-07-21T23:22:43.678Z,18.77
2023-07-21T23:25:51.980Z,18.84
2023-07-21T23:28:57.750Z,18.62
2023-07-21T23:32:01.821Z,18.68
2023-07-21T23:35:04.614Z,18.80
2023-07-21T23:38:07.661Z,18.67
2023-07-21T23:41:10.345Z,18.50
2023-07-21T23:44:13.308Z,18.65
2023-07-21T23:47:16.221Z,18.55
2023-07-21T23:50:19.122Z,18.61
2023-07-21T23:53:23.846Z,18.72
2023-07-21T23:56:27.174Z,18.56
2023-07-21T23:59:29.848Z,18.50
